CYQW

North Battleford Airport

North Battleford, Saskatchewan, Canada
METAR CYQW 200700Z AUTO 22006KT 9SM OVC070 M16/M21 A2995 RMK SLP194
Observed Flight Rules
Feb-20 @ 07:00 UTC (35 minutes ago) Visual Flight Rules
Wind Visibility Clouds
220° at 6 knots 9 miles
  • Overcast at 7,000' AGL
Temperatures Readings
Current -16°C / 3°F
Dewpoint -21°C / -6°F
Humidity 66%
Altimeter 29.95" Hg
Pressure 1019.4 hPa
Elevation 548
METAR CYQW 200700Z AUTO 22006KT 9SM OVC070 M16/M21 A2995 RMK SLP194
Observed Flight Rules
Feb-20 @ 07:00 UTC
(35 minutes ago)
VFR
Wind Visibility
220° at 6 knots 9 miles
Clouds
  • Overcast at 7,000' AGL
Temperature Dewpoint
-16°C / 3°F -21°C / -6°F
Humidity Altimeter Pressure
66% 29.95" Hg 1019.4 hPa